Time;durP1;ratioP1;P1;durP2;ratioP2;P2;SDS_P1;SDS_P2;PMS_P1;PMS_P2;Temp;Humidity;BMP_temperature;BMP_pressure;BME280_temperature;BME280_humidity;BME280_pressure;Samples;Min_cycle;Max_cycle;Signal;HPM_P1;HPM_P2
2020/12/10 00:00:06;;;;;;;25.52;13.00;;;-1.80;78.30;;;;;;5035361;28;20041;-62
2020/12/10 00:02:32;;;;;;;25.33;10.27;;;-1.90;78.30;;;;;;5052645;28;20079;-61
2020/12/10 00:04:58;;;;;;;23.55;11.88;;;-1.80;78.40;;;;;;5047705;28;20053;-61
2020/12/10 00:07:24;;;;;;;25.48;11.20;;;-1.80;78.40;;;;;;5039403;28;20032;-62
2020/12/10 00:09:54;;;;;;;23.42;10.65;;;-1.80;78.30;;;;;;5040781;28;20104;-60
2020/12/10 00:12:20;;;;;;;22.20;10.60;;;-1.80;78.40;;;;;;5043441;28;20124;-62
2020/12/10 00:14:46;;;;;;;23.00;9.70;;;-1.80;78.30;;;;;;5034646;28;20026;-61
2020/12/10 00:17:12;;;;;;;30.15;11.27;;;-1.80;78.30;;;;;;5041783;28;20039;-61
2020/12/10 00:19:39;;;;;;;22.67;10.07;;;-1.70;78.40;;;;;;5037629;28;20032;-61
2020/12/10 00:22:07;;;;;;;25.77;11.55;;;-1.70;78.20;;;;;;5040720;28;20044;-62
2020/12/10 00:24:33;;;;;;;42.95;17.70;;;-1.70;78.20;;;;;;5048445;28;20125;-61
2020/12/10 00:26:58;;;;;;;24.25;10.80;;;-1.80;78.10;;;;;;5044044;28;20433;-61
2020/12/10 00:29:24;;;;;;;23.23;11.55;;;-1.80;78.20;;;;;;5043306;28;20391;-61
2020/12/10 00:31:50;;;;;;;33.40;14.25;;;-1.70;78.40;;;;;;5051404;28;20041;-62
2020/12/10 00:34:16;;;;;;;43.30;20.80;;;-1.80;78.50;;;;;;5047561;28;20037;-63
2020/12/10 00:36:44;;;;;;;52.90;22.15;;;-1.70;78.60;;;;;;5045892;28;20028;-61
2020/12/10 00:39:10;;;;;;;36.08;15.35;;;-1.70;78.50;;;;;;5044716;28;20022;-62
2020/12/10 00:41:36;;;;;;;25.58;13.00;;;-1.70;78.40;;;;;;5052277;28;20083;-62
2020/12/10 00:44:06;;;;;;;29.88;14.05;;;-1.70;78.20;;;;;;5048392;28;20124;-62
2020/12/10 00:46:32;;;;;;;26.85;12.88;;;-1.70;78.20;;;;;;5039659;28;20082;-62
2020/12/10 00:48:57;;;;;;;28.25;13.80;;;-1.70;78.20;;;;;;5046408;28;20022;-63
2020/12/10 00:51:23;;;;;;;26.00;12.35;;;-1.70;78.20;;;;;;5040175;28;20041;-62
2020/12/10 00:53:49;;;;;;;25.20;13.13;;;-1.70;78.20;;;;;;5046753;28;20052;-62
2020/12/10 00:56:14;;;;;;;22.05;9.88;;;-1.70;78.10;;;;;;5050982;28;20043;-62
2020/12/10 00:58:45;;;;;;;20.27;10.35;;;-1.70;78.60;;;;;;5049038;28;20032;-62
2020/12/10 01:01:10;;;;;;;24.35;12.45;;;-1.70;77.90;;;;;;5048199;28;20092;-62
2020/12/10 01:03:36;;;;;;;16.10;8.82;;;-1.70;77.90;;;;;;5051344;28;20128;-63
2020/12/10 01:06:04;;;;;;;19.95;9.45;;;-1.70;77.70;;;;;;5040842;28;20052;-62
2020/12/10 01:08:30;;;;;;;21.05;8.95;;;-1.60;77.60;;;;;;5047989;28;20364;-66
2020/12/10 01:10:56;;;;;;;21.88;10.55;;;-1.70;77.10;;;;;;5046928;28;20044;-64
2020/12/10 01:13:30;;;;;;;19.52;8.73;;;-1.70;77.00;;;;;;5037534;28;20487;-62
2020/12/10 01:15:56;;;;;;;17.35;8.65;;;-1.70;77.10;;;;;;5046373;28;20033;-62
2020/12/10 01:18:29;;;;;;;19.77;10.18;;;-1.70;76.90;;;;;;5047820;28;20062;-64
2020/12/10 01:21:00;;;;;;;29.08;12.95;;;-1.70;77.00;;;;;;5038279;28;20480;-61
2020/12/10 01:23:35;;;;;;;24.52;12.70;;;-1.60;76.90;;;;;;5049002;28;20628;-63
2020/12/10 01:26:01;;;;;;;;;;;-1.60;76.80;;;;;;5043787;28;20033;-63
2020/12/10 01:28:27;;;;;;;28.23;12.77;;;-1.70;76.60;;;;;;5042278;28;20256;-62
2020/12/10 01:30:52;;;;;;;30.67;12.82;;;-1.70;76.50;;;;;;5041695;28;20039;-62
2020/12/10 01:33:18;;;;;;;25.05;13.18;;;-1.70;76.30;;;;;;5042478;28;20021;-62
2020/12/10 01:35:44;;;;;;;25.42;12.23;;;-1.80;76.20;;;;;;5049511;28;20029;-62
2020/12/10 01:38:12;;;;;;;29.55;13.65;;;-1.90;76.20;;;;;;5044696;28;20029;-62
2020/12/10 01:40:38;;;;;;;29.90;12.27;;;-1.90;76.30;;;;;;5042261;28;20053;-62
2020/12/10 01:43:04;;;;;;;20.15;10.05;;;-2.00;76.30;;;;;;5050462;28;20052;-63
2020/12/10 01:45:29;;;;;;;25.55;12.15;;;-2.10;76.60;;;;;;5048007;28;20112;-62
2020/12/10 01:48:01;;;;;;;28.08;11.95;;;-2.20;76.80;;;;;;5042778;28;20055;-62
2020/12/10 01:50:36;;;;;;;24.55;11.60;;;-2.30;77.20;;;;;;5045290;28;20410;-62
2020/12/10 01:53:05;;;;;;;28.75;12.00;;;-2.30;77.50;;;;;;5045851;28;20387;-62
2020/12/10 01:55:42;;;;;;;30.20;15.18;;;-2.30;77.80;;;;;;5050537;28;20478;-62
2020/12/10 01:58:17;;;;;;;34.97;15.77;;;-2.30;78.00;;;;;;5045769;28;20075;-62
2020/12/10 02:00:43;;;;;;;29.00;12.75;;;-2.30;78.30;;;;;;5037934;28;20021;-63
2020/12/10 02:03:09;;;;;;;27.60;14.27;;;-2.30;78.50;;;;;;5039414;28;20051;-63
2020/12/10 02:06:00;;;;;;;28.73;13.55;;;-2.30;78.60;;;;;;5044281;28;20026;-62
2020/12/10 02:08:25;;;;;;;21.17;11.80;;;-2.20;78.60;;;;;;5040153;28;20059;-62
2020/12/10 02:10:51;;;;;;;26.52;11.95;;;-2.20;78.60;;;;;;5039089;28;20041;-62
2020/12/10 02:13:17;;;;;;;21.25;11.10;;;-2.20;78.60;;;;;;5041403;28;20029;-62
2020/12/10 02:15:47;;;;;;;25.02;12.07;;;-2.20;78.60;;;;;;5039062;28;20088;-65
2020/12/10 02:18:13;;;;;;;23.80;12.10;;;-2.10;78.70;;;;;;5042855;28;20536;-64
2020/12/10 02:21:05;;;;;;;20.23;10.57;;;-2.20;78.70;;;;;;5035665;28;20026;-63
2020/12/10 02:23:32;;;;;;;20.73;10.65;;;-2.10;78.60;;;;;;5040196;28;20076;-63
2020/12/10 02:26:01;;;;;;;18.42;10.38;;;-2.20;78.40;;;;;;5035159;28;20053;-63
2020/12/10 02:28:26;;;;;;;20.75;11.43;;;-2.20;78.40;;;;;;5044228;28;20030;-63
2020/12/10 02:30:55;;;;;;;32.47;14.73;;;-2.20;78.50;;;;;;5037841;28;20037;-62
2020/12/10 02:33:21;;;;;;;35.92;14.77;;;-2.20;78.40;;;;;;5044159;28;20033;-63
2020/12/10 02:35:49;;;;;;;30.73;12.32;;;-2.20;78.40;;;;;;5050949;28;20048;-62
2020/12/10 02:38:15;;;;;;;30.38;14.15;;;-2.20;78.40;;;;;;5045560;28;20167;-62
2020/12/10 02:40:46;;;;;;;25.00;11.20;;;-2.20;79.00;;;;;;5051418;28;20499;-63
2020/12/10 02:43:15;;;;;;;19.33;10.68;;;-2.20;78.50;;;;;;5036468;28;20029;-62
2020/12/10 02:45:41;;;;;;;25.70;12.32;;;-2.20;78.50;;;;;;5046305;28;20429;-62
2020/12/10 02:48:08;;;;;;;27.52;13.30;;;-2.20;78.50;;;;;;5049568;28;20036;-62
2020/12/10 02:50:34;;;;;;;22.80;11.57;;;-2.20;78.50;;;;;;5047254;28;20120;-64
2020/12/10 02:53:00;;;;;;;23.00;13.07;;;-2.20;78.60;;;;;;5045201;28;20491;-63
2020/12/10 02:55:26;;;;;;;26.35;13.20;;;-2.20;78.60;;;;;;5046775;28;20068;-63
2020/12/10 02:57:51;;;;;;;25.77;13.93;;;-2.20;78.60;;;;;;5037920;28;20033;-63
2020/12/10 03:00:17;;;;;;;29.17;14.30;;;-2.20;78.70;;;;;;5050616;28;20029;-63
2020/12/10 03:02:43;;;;;;;24.67;12.00;;;-2.10;78.90;;;;;;5044367;28;20042;-63
2020/12/10 03:05:09;;;;;;;25.15;12.30;;;-2.20;78.70;;;;;;5036813;28;20101;-63
2020/12/10 03:07:35;;;;;;;64.95;24.23;;;-2.10;78.80;;;;;;5049974;28;20032;-64
2020/12/10 03:10:03;;;;;;;44.13;18.67;;;-2.10;78.70;;;;;;5047794;28;20033;-64
2020/12/10 03:12:29;;;;;;;34.50;15.55;;;-2.10;78.80;;;;;;5050680;28;20124;-66
2020/12/10 03:14:57;;;;;;;28.48;13.43;;;-2.10;78.60;;;;;;5036958;28;20440;-64
2020/12/10 03:17:26;;;;;;;32.53;14.55;;;-2.20;78.40;;;;;;5042338;28;20132;-63
2020/12/10 03:19:52;;;;;;;31.63;14.18;;;-2.20;78.40;;;;;;5052801;28;20090;-64
2020/12/10 03:22:19;;;;;;;27.02;14.38;;;-2.20;78.30;;;;;;5051843;28;20022;-65
2020/12/10 03:24:45;;;;;;;32.20;15.77;;;-2.20;78.20;;;;;;5050464;28;20033;-64
2020/12/10 03:27:13;;;;;;;26.67;14.40;;;-2.20;78.10;;;;;;5042898;28;20055;-65
2020/12/10 03:29:39;;;;;;;31.02;14.38;;;-2.20;78.10;;;;;;5040044;28;20037;-65
2020/12/10 03:32:06;;;;;;;36.20;17.02;;;-2.20;78.10;;;;;;5048749;28;20049;-65
2020/12/10 03:34:32;;;;;;;38.35;18.42;;;-2.20;78.20;;;;;;5042721;28;20031;-64
2020/12/10 03:37:04;;;;;;;53.70;23.08;;;-2.20;78.10;;;;;;5048072;28;20496;-64
2020/12/10 03:39:30;;;;;;;52.50;21.65;;;-2.10;78.10;;;;;;5052205;28;20387;-63
2020/12/10 03:41:58;;;;;;;53.78;25.00;;;-2.20;77.70;;;;;;5048583;28;20083;-63
2020/12/10 03:44:27;;;;;;;69.32;30.45;;;-2.20;77.50;;;;;;5051295;28;20025;-63
2020/12/10 03:46:53;;;;;;;51.13;23.52;;;-2.30;77.40;;;;;;5041050;28;20029;-64
2020/12/10 03:49:19;;;;;;;41.33;19.88;;;-2.40;77.40;;;;;;5047017;28;20569;-63
2020/12/10 03:51:57;;;;;;;39.50;18.67;;;-2.50;77.40;;;;;;5039883;28;20128;-63
2020/12/10 03:54:23;;;;;;;37.63;19.88;;;-2.60;77.60;;;;;;5052010;28;20103;-64
2020/12/10 03:56:48;;;;;;;34.92;17.58;;;-2.70;77.60;;;;;;5052824;28;20104;-63
2020/12/10 03:59:14;;;;;;;48.58;22.60;;;-2.70;77.80;;;;;;5040116;28;20029;-63
2020/12/10 04:01:40;;;;;;;41.95;22.23;;;-2.70;77.80;;;;;;5037488;28;20029;-63
2020/12/10 04:04:06;;;;;;;55.72;28.10;;;-2.80;77.90;;;;;;5037352;28;20054;-65
2020/12/10 04:06:44;;;;;;;43.90;21.20;;;-2.80;78.10;;;;;;5047536;28;20386;-63
2020/12/10 04:09:10;;;;;;;41.55;21.08;;;-2.90;78.10;;;;;;5053499;28;20090;-63
2020/12/10 04:11:37;;;;;;;66.57;29.92;;;-2.90;78.30;;;;;;5050888;28;20038;-65
2020/12/10 04:14:18;;;;;;;66.30;27.77;;;-3.00;78.40;;;;;;5043285;28;20036;-64
2020/12/10 04:16:44;;;;;;;49.53;21.65;;;-3.00;78.50;;;;;;5041258;28;20123;-64
2020/12/10 04:19:09;;;;;;;42.25;19.83;;;-3.00;78.60;;;;;;5037458;28;20025;-65
2020/12/10 04:21:35;;;;;;;38.65;17.35;;;-3.00;78.70;;;;;;5041070;28;20063;-62
2020/12/10 04:24:01;;;;;;;33.88;17.02;;;-3.00;78.80;;;;;;5040453;28;20029;-65
2020/12/10 04:26:26;;;;;;;39.10;17.55;;;-3.10;78.60;;;;;;5041349;28;20060;-62
2020/12/10 04:28:52;;;;;;;34.15;18.38;;;-3.10;78.60;;;;;;5041012;28;20071;-64
2020/12/10 04:31:18;;;;;;;41.65;19.83;;;-3.10;78.80;;;;;;5037002;28;20517;-64
2020/12/10 04:33:44;;;;;;;42.25;18.90;;;-3.20;78.70;;;;;;5038895;28;20059;-65
2020/12/10 04:36:10;;;;;;;33.03;14.75;;;-3.20;78.70;;;;;;5036468;28;20598;-64
2020/12/10 04:38:35;;;;;;;27.23;14.38;;;-3.20;78.80;;;;;;5039038;28;20033;-64
2020/12/10 04:41:07;;;;;;;26.33;13.93;;;-3.30;78.80;;;;;;5040449;28;20021;-64
2020/12/10 04:43:33;;;;;;;30.17;15.38;;;-3.30;78.90;;;;;;5041744;28;20029;-67
2020/12/10 04:46:00;;;;;;;30.55;15.90;;;-3.30;79.00;;;;;;5048832;28;20494;-64
2020/12/10 04:48:36;;;;;;;39.70;18.55;;;-3.30;79.20;;;;;;5036242;28;20074;-64
2020/12/10 04:51:06;;;;;;;50.08;23.58;;;-3.30;79.30;;;;;;5046029;28;20115;-65
2020/12/10 04:53:32;;;;;;;39.00;20.48;;;-3.30;79.30;;;;;;5036502;28;20041;-66
2020/12/10 04:56:03;;;;;;;48.80;21.02;;;-3.20;79.50;;;;;;5043433;28;20489;-62
2020/12/10 04:58:29;;;;;;;164.95;48.03;;;-3.20;79.60;;;;;;5044509;28;20088;-64
2020/12/10 05:01:00;;;;;;;36.47;15.73;;;-3.10;80.20;;;;;;5044049;28;20139;-65
2020/12/10 05:03:26;;;;;;;145.40;46.17;;;-3.10;79.40;;;;;;5038716;28;20061;-64
2020/12/10 05:05:52;;;;;;;123.70;44.05;;;-3.00;79.40;;;;;;5034164;28;20357;-64
2020/12/10 05:08:31;;;;;;;148.18;49.03;;;-3.00;79.40;;;;;;5040744;28;20029;-64
2020/12/10 05:10:57;;;;;;;98.13;32.58;;;-3.00;79.40;;;;;;5046179;28;20033;-64
2020/12/10 05:13:23;;;;;;;51.80;20.73;;;-3.00;79.10;;;;;;5039101;28;20032;-64
2020/12/10 05:15:49;;;;;;;54.13;22.25;;;-3.00;78.70;;;;;;5037506;28;20033;-63
2020/12/10 05:18:16;;;;;;;46.53;20.95;;;-3.00;78.80;;;;;;5048916;28;20392;-63
2020/12/10 05:20:56;;;;;;;63.22;24.33;;;-3.00;78.80;;;;;;5039937;28;20036;-63
2020/12/10 05:23:33;;;;;;;62.88;27.27;;;-3.00;78.90;;;;;;5039136;28;20114;-65
2020/12/10 05:26:04;;;;;;;45.97;22.00;;;-3.00;78.90;;;;;;5037424;28;20072;-64
2020/12/10 05:28:40;;;;;;;52.05;21.65;;;-2.90;79.30;;;;;;5048062;28;20022;-64
2020/12/10 05:31:08;;;;;;;49.65;24.90;;;-2.80;79.30;;;;;;5042068;28;20170;-63
2020/12/10 05:33:34;;;;;;;79.57;30.67;;;-2.80;79.10;;;;;;5044421;28;20072;-62
2020/12/10 05:36:11;;;;;;;52.72;22.40;;;-2.80;78.90;;;;;;5053129;28;20029;-64
2020/12/10 05:39:05;;;;;;;57.67;21.50;;;-2.70;78.80;;;;;;5050221;28;20808;-65
2020/12/10 05:41:36;;;;;;;47.33;18.20;;;-2.70;78.80;;;;;;5047896;28;20040;-65
2020/12/10 05:44:18;;;;;;;42.47;18.08;;;-2.70;78.70;;;;;;5046536;28;20059;-65
2020/12/10 05:46:45;;;;;;;40.92;15.80;;;-2.70;78.60;;;;;;5044323;28;20061;-64
2020/12/10 05:49:12;;;;;;;44.80;18.52;;;-2.70;78.70;;;;;;5047622;28;20411;-67
2020/12/10 05:51:45;;;;;;;43.00;18.88;;;-2.60;78.70;;;;;;5049720;28;20075;-67
2020/12/10 05:54:14;;;;;;;55.95;20.35;;;-2.60;78.80;;;;;;5044064;28;20029;-62
2020/12/10 05:56:55;;;;;;;48.88;19.75;;;-2.60;78.80;;;;;;5051091;28;20078;-64
2020/12/10 05:59:23;;;;;;;37.58;16.20;;;-2.60;78.80;;;;;;5050403;28;20033;-67
2020/12/10 06:01:49;;;;;;;32.70;15.65;;;-2.50;79.00;;;;;;5048004;28;20034;-69
2020/12/10 06:04:16;;;;;;;40.78;17.13;;;-2.50;79.00;;;;;;5049425;28;20033;-64
2020/12/10 06:06:41;;;;;;;35.85;16.13;;;-2.50;79.00;;;;;;5052116;28;20108;-65
2020/12/10 06:09:08;;;;;;;33.97;14.75;;;-2.40;79.00;;;;;;5047269;28;20518;-66
2020/12/10 06:11:34;;;;;;;32.25;16.05;;;-2.40;79.10;;;;;;5048767;28;20106;-61
2020/12/10 06:14:09;;;;;;;36.03;15.25;;;-2.30;79.20;;;;;;5050497;28;20036;-64
2020/12/10 06:16:35;;;;;;;40.97;22.53;;;-2.30;79.10;;;;;;5055206;28;20051;-65
2020/12/10 06:19:34;;;;;;;52.50;24.92;;;-2.20;79.00;;;;;;5040549;28;20264;-62
2020/12/10 06:22:32;;;;;;;49.97;21.90;;;-2.20;79.00;;;;;;5035993;28;20082;-66
2020/12/10 06:25:01;;;;;;;41.50;20.33;;;-2.10;79.20;;;;;;5047242;28;20100;-62
2020/12/10 06:27:33;;;;;;;50.35;22.48;;;-2.10;79.30;;;;;;5044472;28;20024;-62
2020/12/10 06:30:11;;;;;;;44.25;22.08;;;-2.10;79.30;;;;;;5039278;28;20100;-62
2020/12/10 06:32:47;;;;;;;40.78;20.33;;;-2.00;79.40;;;;;;5053360;28;20422;-63
2020/12/10 06:35:45;;;;;;;38.55;20.58;;;-1.90;79.50;;;;;;5056600;28;20025;-62
2020/12/10 06:38:12;;;;;;;53.03;26.02;;;-1.90;79.40;;;;;;5044044;28;20033;-62
2020/12/10 06:40:40;;;;;;;56.95;27.95;;;-1.80;79.30;;;;;;5054366;28;20463;-62
2020/12/10 06:43:07;;;;;;;50.88;25.08;;;-1.80;79.20;;;;;;5046140;28;20395;-62
2020/12/10 06:45:34;;;;;;;61.08;29.05;;;-1.80;79.10;;;;;;5053151;28;20032;-62
2020/12/10 06:48:04;;;;;;;45.53;20.80;;;-1.80;79.10;;;;;;5056579;28;20025;-62
2020/12/10 06:50:39;;;;;;;30.92;15.02;;;-1.70;79.10;;;;;;5056453;28;20025;-62
2020/12/10 06:53:11;;;;;;;41.25;21.20;;;-1.70;79.00;;;;;;5056668;28;20021;-62
2020/12/10 06:56:06;;;;;;;37.55;17.55;;;-1.70;79.00;;;;;;5056260;28;20071;-62
2020/12/10 06:58:34;;;;;;;36.13;17.95;;;-1.60;79.00;;;;;;5056124;28;20471;-62
2020/12/10 07:01:17;;;;;;;36.97;17.35;;;-1.60;79.00;;;;;;5056153;28;20103;-62
2020/12/10 07:03:44;;;;;;;41.85;17.60;;;-1.60;79.00;;;;;;5056808;28;20044;-62
2020/12/10 07:06:19;;;;;;;49.15;21.77;;;-1.60;79.10;;;;;;5056379;28;20025;-63
2020/12/10 07:09:08;;;;;;;49.53;21.58;;;-1.50;79.40;;;;;;5056274;28;20021;-63
2020/12/10 07:11:35;;;;;;;36.50;17.17;;;-1.50;79.70;;;;;;5042894;28;20033;-64
2020/12/10 07:14:20;;;;;;;49.70;21.08;;;-1.40;79.70;;;;;;5056273;28;20519;-62
2020/12/10 07:16:46;;;;;;;52.03;22.38;;;-1.40;79.60;;;;;;5056372;28;20028;-63
2020/12/10 07:19:12;;;;;;;37.60;16.17;;;-1.40;79.30;;;;;;5056079;28;20527;-64
2020/12/10 07:21:38;;;;;;;29.08;12.93;;;-1.40;79.20;;;;;;5054542;28;20546;-63
2020/12/10 07:24:03;;;;;;;46.67;21.90;;;-1.40;79.20;;;;;;5055995;28;20029;-66
2020/12/10 07:26:30;;;;;;;53.15;24.75;;;-1.40;79.50;;;;;;5055631;28;20082;-62
2020/12/10 07:28:55;;;;;;;39.17;16.40;;;-1.40;79.80;;;;;;5055824;28;20032;-62
2020/12/10 07:31:21;;;;;;;39.72;16.08;;;-1.40;79.70;;;;;;5044123;28;20468;-61
2020/12/10 07:33:47;;;;;;;37.03;14.82;;;-1.40;80.30;;;;;;5053352;28;20025;-62
2020/12/10 07:36:12;;;;;;;45.08;20.98;;;-1.30;79.80;;;;;;5054785;28;20021;-61
2020/12/10 07:38:44;;;;;;;50.72;22.20;;;-1.30;80.00;;;;;;5055263;28;20429;-62
2020/12/10 07:41:10;;;;;;;48.60;23.38;;;-1.30;80.20;;;;;;5055791;28;20110;-62
2020/12/10 07:43:49;;;;;;;58.03;24.75;;;-1.30;80.20;;;;;;5054859;28;20071;-62
2020/12/10 07:46:15;;;;;;;37.85;18.48;;;-1.20;80.20;;;;;;5054582;28;20025;-62
2020/12/10 07:48:42;;;;;;;42.65;17.08;;;-1.30;80.20;;;;;;5055392;28;20051;-62
2020/12/10 07:51:17;;;;;;;53.20;19.23;;;-1.20;80.20;;;;;;5055561;28;20032;-62
2020/12/10 07:53:42;;;;;;;83.82;32.60;;;-1.20;80.50;;;;;;5054413;28;20379;-62
2020/12/10 07:56:11;;;;;;;44.97;18.75;;;-1.20;80.60;;;;;;5055312;28;20025;-62
2020/12/10 07:58:48;;;;;;;38.42;15.52;;;-1.20;80.70;;;;;;5055232;28;20075;-63
2020/12/10 08:01:14;;;;;;;44.35;19.23;;;-1.20;80.50;;;;;;5055181;28;20025;-62
2020/12/10 08:03:54;;;;;;;41.75;18.40;;;-1.20;80.60;;;;;;5054183;28;20045;-62
2020/12/10 08:06:20;;;;;;;44.33;19.23;;;-1.20;80.90;;;;;;5055172;28;20063;-61
2020/12/10 08:08:50;;;;;;;50.88;18.88;;;-1.10;81.10;;;;;;5055091;28;20123;-62
2020/12/10 08:11:18;;;;;;;49.47;19.73;;;-1.20;81.10;;;;;;5054994;28;20029;-62
2020/12/10 08:14:02;;;;;;;46.55;19.05;;;-1.10;81.30;;;;;;5054057;28;20379;-63
2020/12/10 08:16:40;;;;;;;43.72;18.58;;;-1.10;81.60;;;;;;5054982;28;20054;-63
2020/12/10 08:19:20;;;;;;;59.72;23.25;;;-1.10;81.60;;;;;;5053713;28;20021;-63
2020/12/10 08:21:48;;;;;;;35.80;16.25;;;-1.10;81.80;;;;;;5041946;28;20025;-62
2020/12/10 08:24:32;;;;;;;62.53;23.42;;;-1.10;81.80;;;;;;5055053;28;20021;-63
2020/12/10 08:26:58;;;;;;;50.75;23.08;;;-1.10;81.90;;;;;;5054667;28;20032;-62
2020/12/10 08:29:24;;;;;;;60.83;25.17;;;-1.10;82.10;;;;;;5054736;28;20033;-63
2020/12/10 08:31:50;;;;;;;58.72;23.50;;;-1.00;82.40;;;;;;5054423;28;20407;-63
2020/12/10 08:34:17;;;;;;;65.35;26.92;;;-1.00;83.10;;;;;;5054846;28;20108;-63
2020/12/10 08:36:43;;;;;;;56.60;22.27;;;-1.00;82.60;;;;;;5053333;28;20057;-64
2020/12/10 08:39:09;;;;;;;39.10;18.05;;;-1.00;82.20;;;;;;5054667;28;20025;-63
2020/12/10 08:41:36;;;;;;;40.05;15.98;;;-1.10;81.80;;;;;;5054586;28;20047;-63
2020/12/10 08:44:03;;;;;;;37.03;15.43;;;-1.20;81.80;;;;;;5054340;28;20029;-63
2020/12/10 08:46:30;;;;;;;53.95;22.92;;;-1.20;81.90;;;;;;5054785;28;20032;-63
2020/12/10 08:48:57;;;;;;;42.45;17.90;;;-1.30;82.00;;;;;;5054274;28;20112;-62
2020/12/10 08:51:40;;;;;;;54.38;24.73;;;-1.30;82.20;;;;;;5053431;28;20087;-62
2020/12/10 08:54:05;;;;;;;33.17;15.48;;;-1.30;82.40;;;;;;5053169;28;20079;-62
2020/12/10 08:56:36;;;;;;;43.30;17.92;;;-1.30;82.50;;;;;;5053298;28;20444;-62
2020/12/10 08:59:03;;;;;;;38.70;16.52;;;-1.30;82.50;;;;;;5053183;28;20074;-63
2020/12/10 09:01:29;;;;;;;33.97;14.35;;;-1.40;82.60;;;;;;5041997;28;20390;-62
2020/12/10 09:03:54;;;;;;;33.78;15.75;;;-1.40;82.70;;;;;;5054720;28;20051;-62
2020/12/10 09:06:20;;;;;;;45.78;20.35;;;-1.40;82.70;;;;;;5054193;28;20029;-62
2020/12/10 09:08:46;;;;;;;41.25;18.98;;;-1.40;82.80;;;;;;5052352;28;20486;-62
2020/12/10 09:11:11;;;;;;;45.10;19.67;;;-1.40;83.50;;;;;;5053740;28;20020;-63
2020/12/10 09:13:37;;;;;;;42.25;17.35;;;-1.40;82.80;;;;;;5053926;28;20483;-62
2020/12/10 09:16:03;;;;;;;33.83;14.30;;;-1.40;82.90;;;;;;5053915;28;20463;-63
2020/12/10 09:18:29;;;;;;;42.60;17.67;;;-1.40;83.00;;;;;;5054083;28;20104;-63
2020/12/10 09:20:55;;;;;;;48.00;21.25;;;-1.40;83.20;;;;;;5053573;28;20411;-63
2020/12/10 09:23:21;;;;;;;29.23;15.45;;;-1.40;83.30;;;;;;5053649;28;20092;-64
2020/12/10 09:25:47;;;;;;;36.80;15.65;;;-1.30;83.20;;;;;;5054127;28;20031;-63
2020/12/10 09:28:14;;;;;;;39.60;16.27;;;-1.30;83.10;;;;;;5053842;28;20096;-62
2020/12/10 09:30:40;;;;;;;43.53;16.77;;;-1.40;82.90;;;;;;5053377;28;20045;-62
2020/12/10 09:33:06;;;;;;;30.63;14.65;;;-1.40;83.00;;;;;;5053667;28;20383;-62
2020/12/10 09:35:32;;;;;;;26.95;13.00;;;-1.40;83.20;;;;;;5053497;28;20104;-62
2020/12/10 09:38:01;;;;;;;39.33;18.10;;;-1.40;83.20;;;;;;5053606;28;20099;-62
2020/12/10 09:40:27;;;;;;;41.42;16.73;;;-1.40;83.30;;;;;;5053485;28;20427;-63
2020/12/10 09:42:52;;;;;;;43.75;19.33;;;-1.40;83.30;;;;;;5053348;28;20059;-61
2020/12/10 09:45:18;;;;;;;36.15;15.82;;;-1.40;83.40;;;;;;5053272;28;20017;-62
2020/12/10 09:47:46;;;;;;;40.58;17.67;;;-1.40;83.40;;;;;;5053472;28;20067;-61
2020/12/10 09:50:36;;;;;;;38.58;16.42;;;-1.40;83.40;;;;;;5052148;28;20098;-62
2020/12/10 09:58:44;;;;;;;49.70;17.83;;;-1.40;83.60;;;;;;5091258;28;20028;-64
2020/12/10 10:01:11;;;;;;;47.20;16.52;;;-1.40;83.80;;;;;;5064340;28;20041;-62
2020/12/10 10:03:37;;;;;;;52.35;19.85;;;-1.40;83.90;;;;;;5053372;28;20538;-62
2020/12/10 10:06:02;;;;;;;41.03;17.50;;;-1.40;84.00;;;;;;5052902;28;20049;-63
2020/12/10 10:08:30;;;;;;;42.80;19.77;;;-1.40;84.20;;;;;;5053000;28;20021;-62
2020/12/10 10:10:56;;;;;;;48.70;20.15;;;-1.40;84.20;;;;;;5052485;28;20041;-62
2020/12/10 10:13:22;;;;;;;54.10;24.17;;;-1.40;84.30;;;;;;5052976;28;20047;-63
2020/12/10 10:15:47;;;;;;;52.03;22.90;;;-1.30;84.30;;;;;;5052712;28;20021;-62
2020/12/10 10:18:17;;;;;;;59.10;22.83;;;-1.30;84.40;;;;;;5052940;28;20032;-62
2020/12/10 10:20:44;;;;;;;44.05;22.38;;;-1.30;84.40;;;;;;5051716;28;20387;-62
2020/12/10 10:23:10;;;;;;;40.67;19.95;;;-1.20;84.50;;;;;;5052885;28;20071;-62
2020/12/10 10:25:35;;;;;;;47.53;21.33;;;-1.20;84.30;;;;;;5053325;28;20478;-62
2020/12/10 10:28:02;;;;;;;39.55;17.55;;;-1.20;84.10;;;;;;5052599;28;20074;-62
2020/12/10 10:30:27;;;;;;;45.50;17.48;;;-1.20;84.00;;;;;;5052761;28;20413;-63
2020/12/10 10:32:53;;;;;;;46.08;18.05;;;-1.30;83.90;;;;;;5052825;28;20029;-62
2020/12/10 10:35:19;;;;;;;33.05;15.50;;;-1.30;83.90;;;;;;5051435;28;20052;-63
2020/12/10 10:37:46;;;;;;;39.58;17.10;;;-1.30;83.70;;;;;;5053032;28;20048;-62
2020/12/10 10:40:12;;;;;;;36.03;17.75;;;-1.30;83.80;;;;;;5052514;28;20036;-63
2020/12/10 10:42:38;;;;;;;39.00;15.75;;;-1.40;83.90;;;;;;5052356;28;20463;-63
2020/12/10 10:45:03;;;;;;;48.50;22.42;;;-1.40;84.10;;;;;;5051859;28;20072;-63
2020/12/10 10:47:29;;;;;;;47.72;19.98;;;-1.30;84.40;;;;;;5051426;28;20021;-63
2020/12/10 10:49:55;;;;;;;39.50;17.13;;;-1.30;84.40;;;;;;5052701;28;20044;-62
2020/12/10 10:52:21;;;;;;;39.75;15.75;;;-1.30;84.40;;;;;;5052555;28;20047;-63
2020/12/10 10:54:46;;;;;;;35.83;16.65;;;-1.30;84.20;;;;;;5052528;28;20032;-63
2020/12/10 10:57:12;;;;;;;47.03;21.23;;;-1.30;84.00;;;;;;5052389;28;20025;-63
2020/12/10 10:59:38;;;;;;;37.75;15.55;;;-1.30;84.20;;;;;;5053061;28;20058;-63
2020/12/10 11:02:03;;;;;;;39.78;17.17;;;-1.30;84.20;;;;;;5052438;28;20112;-62
2020/12/10 11:04:29;;;;;;;38.95;16.55;;;-1.30;84.10;;;;;;5052612;28;20029;-62
2020/12/10 11:06:55;;;;;;;41.42;15.90;;;-1.30;84.10;;;;;;5052369;28;20037;-63
2020/12/10 11:09:21;;;;;;;43.05;19.90;;;-1.30;84.10;;;;;;5052443;28;20025;-63
2020/12/10 11:11:46;;;;;;;35.80;16.50;;;-1.30;84.30;;;;;;5052192;28;20543;-63
2020/12/10 11:14:12;;;;;;;33.92;16.63;;;-1.30;84.30;;;;;;5052285;28;20029;-62
2020/12/10 11:16:38;;;;;;;39.80;17.33;;;-1.30;83.90;;;;;;5052233;28;20025;-62
2020/12/10 11:19:04;;;;;;;35.13;15.13;;;-1.40;83.80;;;;;;5052908;28;20032;-63
2020/12/10 11:21:29;;;;;;;37.90;14.00;;;-1.40;83.90;;;;;;5056160;28;20043;-62
2020/12/10 11:23:55;;;;;;;34.53;15.25;;;-1.40;83.90;;;;;;5056548;28;20025;-63
2020/12/10 11:26:21;;;;;;;34.88;15.23;;;-1.40;84.10;;;;;;5055927;28;20025;-64
2020/12/10 11:28:47;;;;;;;35.97;17.08;;;-1.40;84.20;;;;;;5056381;28;20473;-62
2020/12/10 11:31:12;;;;;;;33.97;13.75;;;-1.40;84.40;;;;;;5055974;28;20051;-63
2020/12/10 11:33:39;;;;;;;45.30;18.40;;;-1.30;84.40;;;;;;5055920;28;20390;-63
2020/12/10 11:36:05;;;;;;;38.33;16.20;;;-1.30;84.30;;;;;;5056000;28;20079;-62
2020/12/10 11:38:31;;;;;;;37.83;16.77;;;-1.30;84.30;;;;;;5055889;28;20029;-62
2020/12/10 11:40:57;;;;;;;39.42;18.05;;;-1.30;84.40;;;;;;5055901;28;20029;-62
2020/12/10 11:43:22;;;;;;;36.22;13.55;;;-1.30;84.60;;;;;;5055896;28;20029;-62
2020/12/10 11:45:48;;;;;;;36.03;15.15;;;-1.30;84.40;;;;;;5055565;28;20032;-62
2020/12/10 11:48:14;;;;;;;33.63;14.98;;;-1.30;84.30;;;;;;5055722;28;20055;-63
2020/12/10 11:50:43;;;;;;;32.72;15.18;;;-1.30;84.20;;;;;;5055290;28;20025;-63
2020/12/10 11:53:08;;;;;;;38.65;16.35;;;-1.40;84.10;;;;;;5054763;28;20031;-62
2020/12/10 11:55:34;;;;;;;43.75;18.88;;;-1.40;84.40;;;;;;5054136;28;20020;-63
2020/12/10 11:58:00;;;;;;;30.92;14.85;;;-1.40;84.30;;;;;;5055716;28;20444;-63
2020/12/10 12:00:26;;;;;;;36.03;16.73;;;-1.40;84.40;;;;;;5055726;28;20104;-62
2020/12/10 12:02:52;;;;;;;36.85;15.32;;;-1.40;84.40;;;;;;5055089;28;20098;-63
2020/12/10 12:05:19;;;;;;;34.45;15.50;;;-1.40;84.50;;;;;;5055492;28;20112;-63
2020/12/10 12:07:44;;;;;;;39.28;17.23;;;-1.40;84.50;;;;;;5055188;28;20024;-63
2020/12/10 12:10:11;;;;;;;29.85;14.65;;;-1.40;84.60;;;;;;5055207;28;20024;-61
2020/12/10 12:12:36;;;;;;;52.78;22.58;;;-1.40;84.50;;;;;;5055020;28;20029;-63
2020/12/10 12:15:06;;;;;;;52.05;20.88;;;-1.40;84.70;;;;;;5055282;28;20353;-61
2020/12/10 12:17:34;;;;;;;54.40;22.10;;;-1.40;84.70;;;;;;5055259;28;20372;-62
2020/12/10 12:20:01;;;;;;;84.28;34.08;;;-1.40;84.90;;;;;;5054916;28;20076;-63
2020/12/10 12:22:26;;;;;;;75.63;30.67;;;-1.40;85.10;;;;;;5055006;28;20082;-62
2020/12/10 12:24:52;;;;;;;55.95;23.20;;;-1.40;85.30;;;;;;5053261;28;20024;-63
2020/12/10 12:27:18;;;;;;;36.53;16.25;;;-1.40;85.20;;;;;;5055519;28;20025;-63
2020/12/10 12:29:44;;;;;;;41.78;19.33;;;-1.40;85.30;;;;;;5053937;28;20094;-63
2020/12/10 12:32:10;;;;;;;51.97;22.17;;;-1.40;85.40;;;;;;5054367;28;20024;-63
2020/12/10 12:34:44;;;;;;;37.33;17.10;;;-1.40;85.60;;;;;;5054411;28;20029;-67
2020/12/10 12:37:17;;;;;;;44.40;18.08;;;-1.30;85.60;;;;;;5054660;28;20021;-63
2020/12/10 12:39:43;;;;;;;43.17;19.40;;;-1.30;85.50;;;;;;5053530;28;20064;-63